sensor_id;sensor_type;location;lat;lon;timestamp;temperature;humidity
5842;DHT22;2947;52.276;9.946;2024-03-22T00:01:16;8.80;99.90
5842;DHT22;2947;52.276;9.946;2024-03-22T00:03:42;8.80;99.90
5842;DHT22;2947;52.276;9.946;2024-03-22T00:06:08;8.80;99.90
5842;DHT22;2947;52.276;9.946;2024-03-22T00:08:33;8.90;99.90
5842;DHT22;2947;52.276;9.946;2024-03-22T00:10:59;8.80;99.90
5842;DHT22;2947;52.276;9.946;2024-03-22T00:13:25;8.80;99.90
5842;DHT22;2947;52.276;9.946;2024-03-22T00:15:51;8.80;99.90
5842;DHT22;2947;52.276;9.946;2024-03-22T00:18:16;8.80;99.90
5842;DHT22;2947;52.276;9.946;2024-03-22T00:20:42;8.80;99.90
5842;DHT22;2947;52.276;9.946;2024-03-22T00:23:08;8.80;99.90
5842;DHT22;2947;52.276;9.946;2024-03-22T00:25:33;8.80;99.90
5842;DHT22;2947;52.276;9.946;2024-03-22T00:27:59;8.80;99.90
5842;DHT22;2947;52.276;9.946;2024-03-22T00:30:25;8.80;99.90
5842;DHT22;2947;52.276;9.946;2024-03-22T00:32:51;8.80;99.90
5842;DHT22;2947;52.276;9.946;2024-03-22T00:35:16;8.90;99.90
5842;DHT22;2947;52.276;9.946;2024-03-22T00:37:42;8.90;99.90
5842;DHT22;2947;52.276;9.946;2024-03-22T00:40:08;8.90;99.90
5842;DHT22;2947;52.276;9.946;2024-03-22T00:42:34;8.90;99.90
5842;DHT22;2947;52.276;9.946;2024-03-22T00:45:00;8.90;99.90
5842;DHT22;2947;52.276;9.946;2024-03-22T00:47:25;9.00;99.90
5842;DHT22;2947;52.276;9.946;2024-03-22T00:49:51;9.00;99.90
5842;DHT22;2947;52.276;9.946;2024-03-22T00:52:17;9.00;99.90
5842;DHT22;2947;52.276;9.946;2024-03-22T00:54:43;9.00;99.90
5842;DHT22;2947;52.276;9.946;2024-03-22T00:57:08;9.00;99.90
5842;DHT22;2947;52.276;9.946;2024-03-22T00:59:34;9.10;99.90
5842;DHT22;2947;52.276;9.946;2024-03-22T01:02:00;9.10;99.90
5842;DHT22;2947;52.276;9.946;2024-03-22T01:04:25;9.10;99.90
5842;DHT22;2947;52.276;9.946;2024-03-22T01:06:51;9.20;99.90
5842;DHT22;2947;52.276;9.946;2024-03-22T01:09:17;9.20;99.90
5842;DHT22;2947;52.276;9.946;2024-03-22T01:11:43;9.20;99.90
5842;DHT22;2947;52.276;9.946;2024-03-22T01:14:08;9.20;95.20
5842;DHT22;2947;52.276;9.946;2024-03-22T01:16:34;9.30;97.70
5842;DHT22;2947;52.276;9.946;2024-03-22T01:19:00;9.30;94.40
5842;DHT22;2947;52.276;9.946;2024-03-22T01:21:25;9.30;91.20
5842;DHT22;2947;52.276;9.946;2024-03-22T01:23:54;9.30;96.30
5842;DHT22;2947;52.276;9.946;2024-03-22T01:26:20;9.30;97.30
5842;DHT22;2947;52.276;9.946;2024-03-22T01:28:46;9.30;99.90
5842;DHT22;2947;52.276;9.946;2024-03-22T01:31:13;9.30;99.90
5842;DHT22;2947;52.276;9.946;2024-03-22T01:33:38;9.30;98.40
5842;DHT22;2947;52.276;9.946;2024-03-22T01:36:04;9.30;98.60
5842;DHT22;2947;52.276;9.946;2024-03-22T01:38:31;9.40;80.50
5842;DHT22;2947;52.276;9.946;2024-03-22T01:40:57;9.40;58.70
5842;DHT22;2947;52.276;9.946;2024-03-22T01:43:22;9.40;38.00
5842;DHT22;2947;52.276;9.946;2024-03-22T01:45:48;9.50;36.40
5842;DHT22;2947;52.276;9.946;2024-03-22T01:48:14;9.40;36.40
5842;DHT22;2947;52.276;9.946;2024-03-22T01:50:41;9.40;29.80
5842;DHT22;2947;52.276;9.946;2024-03-22T01:53:08;9.50;28.30
5842;DHT22;2947;52.276;9.946;2024-03-22T01:55:34;9.50;37.80
5842;DHT22;2947;52.276;9.946;2024-03-22T01:58:00;9.50;34.70
5842;DHT22;2947;52.276;9.946;2024-03-22T02:00:26;9.50;40.30
5842;DHT22;2947;52.276;9.946;2024-03-22T02:02:51;9.50;36.90
5842;DHT22;2947;52.276;9.946;2024-03-22T02:05:18;9.50;39.50
5842;DHT22;2947;52.276;9.946;2024-03-22T02:07:46;9.50;46.00
5842;DHT22;2947;52.276;9.946;2024-03-22T02:10:12;9.50;45.00
5842;DHT22;2947;52.276;9.946;2024-03-22T02:12:38;9.50;25.00
5842;DHT22;2947;52.276;9.946;2024-03-22T02:15:05;9.50;21.00
5842;DHT22;2947;52.276;9.946;2024-03-22T02:17:32;9.50;27.60
5842;DHT22;2947;52.276;9.946;2024-03-22T02:19:59;9.50;25.40
5842;DHT22;2947;52.276;9.946;2024-03-22T02:22:26;11.00;16.00
5842;DHT22;2947;52.276;9.946;2024-03-22T02:24:53;9.50;14.10
5842;DHT22;2947;52.276;9.946;2024-03-22T02:27:19;9.50;9.40
5842;DHT22;2947;52.276;9.946;2024-03-22T02:29:45;9.50;1.80
5842;DHT22;2947;52.276;9.946;2024-03-22T02:32:11;9.60;6.80
5842;DHT22;2947;52.276;9.946;2024-03-22T02:34:36;9.60;18.40
5842;DHT22;2947;52.276;9.946;2024-03-22T02:37:02;9.60;4.90
5842;DHT22;2947;52.276;9.946;2024-03-22T02:39:28;9.50;26.90
5842;DHT22;2947;52.276;9.946;2024-03-22T02:41:55;9.60;38.90
5842;DHT22;2947;52.276;9.946;2024-03-22T02:44:21;9.50;38.20
5842;DHT22;2947;52.276;9.946;2024-03-22T02:46:52;9.50;42.70
5842;DHT22;2947;52.276;9.946;2024-03-22T02:49:18;9.50;44.30
5842;DHT22;2947;52.276;9.946;2024-03-22T02:51:43;9.50;63.80
5842;DHT22;2947;52.276;9.946;2024-03-22T02:54:09;8.10;66.60
5842;DHT22;2947;52.276;9.946;2024-03-22T02:56:35;9.60;70.20
5842;DHT22;2947;52.276;9.946;2024-03-22T02:59:01;9.50;61.90
5842;DHT22;2947;52.276;9.946;2024-03-22T03:01:27;9.90;71.70
5842;DHT22;2947;52.276;9.946;2024-03-22T03:03:53;9.80;78.10
5842;DHT22;2947;52.276;9.946;2024-03-22T03:06:19;9.50;79.80
5842;DHT22;2947;52.276;9.946;2024-03-22T03:08:45;9.50;81.90
5842;DHT22;2947;52.276;9.946;2024-03-22T03:11:11;9.50;91.80
5842;DHT22;2947;52.276;9.946;2024-03-22T03:13:38;9.60;85.90
5842;DHT22;2947;52.276;9.946;2024-03-22T03:16:04;9.50;79.90
5842;DHT22;2947;52.276;9.946;2024-03-22T03:18:31;9.60;74.50
5842;DHT22;2947;52.276;9.946;2024-03-22T03:20:56;9.60;75.30
5842;DHT22;2947;52.276;9.946;2024-03-22T03:23:22;9.60;83.70
5842;DHT22;2947;52.276;9.946;2024-03-22T03:25:48;9.90;95.90
5842;DHT22;2947;52.276;9.946;2024-03-22T03:28:16;9.60;99.90
5842;DHT22;2947;52.276;9.946;2024-03-22T03:30:41;10.10;99.90
5842;DHT22;2947;52.276;9.946;2024-03-22T03:33:07;9.50;99.90
5842;DHT22;2947;52.276;9.946;2024-03-22T03:35:33;11.00;99.90
5842;DHT22;2947;52.276;9.946;2024-03-22T03:37:59;9.60;99.90
5842;DHT22;2947;52.276;9.946;2024-03-22T03:40:24;9.60;99.90
5842;DHT22;2947;52.276;9.946;2024-03-22T03:42:52;9.60;99.90
5842;DHT22;2947;52.276;9.946;2024-03-22T03:45:21;9.50;99.90
5842;DHT22;2947;52.276;9.946;2024-03-22T03:47:47;9.50;99.90
5842;DHT22;2947;52.276;9.946;2024-03-22T03:50:13;9.50;99.90
5842;DHT22;2947;52.276;9.946;2024-03-22T03:52:39;9.50;99.90
5842;DHT22;2947;52.276;9.946;2024-03-22T03:55:05;9.50;99.90
5842;DHT22;2947;52.276;9.946;2024-03-22T03:57:32;9.50;99.90
5842;DHT22;2947;52.276;9.946;2024-03-22T03:59:58;9.50;99.90
5842;DHT22;2947;52.276;9.946;2024-03-22T04:02:23;9.40;99.90
5842;DHT22;2947;52.276;9.946;2024-03-22T04:04:52;9.40;99.90
5842;DHT22;2947;52.276;9.946;2024-03-22T04:07:22;9.40;99.90
5842;DHT22;2947;52.276;9.946;2024-03-22T04:09:47;9.40;99.90
5842;DHT22;2947;52.276;9.946;2024-03-22T04:12:13;9.40;99.90
5842;DHT22;2947;52.276;9.946;2024-03-22T04:14:39;9.40;99.90
5842;DHT22;2947;52.276;9.946;2024-03-22T04:17:06;9.40;99.90
5842;DHT22;2947;52.276;9.946;2024-03-22T04:19:32;9.40;99.90
5842;DHT22;2947;52.276;9.946;2024-03-22T04:21:57;9.70;99.90
5842;DHT22;2947;52.276;9.946;2024-03-22T04:24:23;9.40;99.90
5842;DHT22;2947;52.276;9.946;2024-03-22T04:26:49;9.60;99.90
5842;DHT22;2947;52.276;9.946;2024-03-22T04:29:16;9.40;99.90
5842;DHT22;2947;52.276;9.946;2024-03-22T04:31:42;9.40;99.90
5842;DHT22;2947;52.276;9.946;2024-03-22T04:34:09;10.10;99.90
5842;DHT22;2947;52.276;9.946;2024-03-22T04:36:35;9.40;99.90
5842;DHT22;2947;52.276;9.946;2024-03-22T04:39:01;9.40;99.90
5842;DHT22;2947;52.276;9.946;2024-03-22T04:41:27;9.40;99.90
5842;DHT22;2947;52.276;9.946;2024-03-22T04:43:54;10.10;99.90
5842;DHT22;2947;52.276;9.946;2024-03-22T04:46:21;9.40;99.90
5842;DHT22;2947;52.276;9.946;2024-03-22T04:48:47;9.40;99.90
5842;DHT22;2947;52.276;9.946;2024-03-22T04:51:13;9.50;99.90
5842;DHT22;2947;52.276;9.946;2024-03-22T04:53:38;9.40;99.90
5842;DHT22;2947;52.276;9.946;2024-03-22T04:56:04;9.40;99.90
5842;DHT22;2947;52.276;9.946;2024-03-22T04:58:31;9.40;99.90
5842;DHT22;2947;52.276;9.946;2024-03-22T05:00:57;9.60;99.90
5842;DHT22;2947;52.276;9.946;2024-03-22T05:03:23;8.30;99.90
5842;DHT22;2947;52.276;9.946;2024-03-22T05:05:50;9.40;99.90
5842;DHT22;2947;52.276;9.946;2024-03-22T05:08:19;9.30;99.90
5842;DHT22;2947;52.276;9.946;2024-03-22T05:10:44;9.40;99.90
5842;DHT22;2947;52.276;9.946;2024-03-22T05:13:10;9.40;99.90
5842;DHT22;2947;52.276;9.946;2024-03-22T05:15:36;10.50;99.90
5842;DHT22;2947;52.276;9.946;2024-03-22T05:18:02;9.40;99.90
5842;DHT22;2947;52.276;9.946;2024-03-22T05:20:28;9.30;99.90
5842;DHT22;2947;52.276;9.946;2024-03-22T05:22:54;9.40;99.90
5842;DHT22;2947;52.276;9.946;2024-03-22T05:25:20;9.40;99.90
5842;DHT22;2947;52.276;9.946;2024-03-22T05:27:47;9.40;99.90
5842;DHT22;2947;52.276;9.946;2024-03-22T05:30:13;9.40;99.90
5842;DHT22;2947;52.276;9.946;2024-03-22T05:32:42;9.40;99.90
5842;DHT22;2947;52.276;9.946;2024-03-22T05:35:08;9.50;99.90
5842;DHT22;2947;52.276;9.946;2024-03-22T05:37:34;9.50;99.90
5842;DHT22;2947;52.276;9.946;2024-03-22T05:40:01;9.70;99.90
5842;DHT22;2947;52.276;9.946;2024-03-22T05:42:28;9.50;99.90
5842;DHT22;2947;52.276;9.946;2024-03-22T05:44:55;10.10;99.90
5842;DHT22;2947;52.276;9.946;2024-03-22T05:47:21;9.50;99.90
5842;DHT22;2947;52.276;9.946;2024-03-22T05:49:47;9.60;99.90
5842;DHT22;2947;52.276;9.946;2024-03-22T05:52:13;9.60;99.90
5842;DHT22;2947;52.276;9.946;2024-03-22T05:54:39;9.90;99.90
5842;DHT22;2947;52.276;9.946;2024-03-22T05:57:05;9.60;99.90
5842;DHT22;2947;52.276;9.946;2024-03-22T05:59:31;9.70;99.90
5842;DHT22;2947;52.276;9.946;2024-03-22T06:01:57;9.70;99.90
5842;DHT22;2947;52.276;9.946;2024-03-22T06:04:23;9.70;99.90
5842;DHT22;2947;52.276;9.946;2024-03-22T06:06:49;10.50;99.90
5842;DHT22;2947;52.276;9.946;2024-03-22T06:09:15;10.00;99.90
5842;DHT22;2947;52.276;9.946;2024-03-22T06:11:49;9.80;99.90
5842;DHT22;2947;52.276;9.946;2024-03-22T06:14:16;9.80;99.90
5842;DHT22;2947;52.276;9.946;2024-03-22T06:16:42;9.80;99.90
5842;DHT22;2947;52.276;9.946;2024-03-22T06:19:08;9.90;99.90
5842;DHT22;2947;52.276;9.946;2024-03-22T06:21:35;9.90;99.90
5842;DHT22;2947;52.276;9.946;2024-03-22T06:24:01;9.90;99.90
5842;DHT22;2947;52.276;9.946;2024-03-22T06:26:28;9.90;99.90
5842;DHT22;2947;52.276;9.946;2024-03-22T06:28:55;10.00;99.90
5842;DHT22;2947;52.276;9.946;2024-03-22T06:31:20;10.00;99.90
5842;DHT22;2947;52.276;9.946;2024-03-22T06:33:47;10.00;99.90
5842;DHT22;2947;52.276;9.946;2024-03-22T06:36:12;10.00;99.90
5842;DHT22;2947;52.276;9.946;2024-03-22T06:38:38;10.00;99.90
5842;DHT22;2947;52.276;9.946;2024-03-22T06:41:04;10.10;99.90
5842;DHT22;2947;52.276;9.946;2024-03-22T06:43:30;10.10;99.90
5842;DHT22;2947;52.276;9.946;2024-03-22T06:45:56;11.20;99.90
5842;DHT22;2947;52.276;9.946;2024-03-22T06:48:22;10.20;99.90
5842;DHT22;2947;52.276;9.946;2024-03-22T06:50:48;10.30;99.90
5842;DHT22;2947;52.276;9.946;2024-03-22T06:53:14;10.30;99.90
5842;DHT22;2947;52.276;9.946;2024-03-22T06:55:39;10.40;99.90
5842;DHT22;2947;52.276;9.946;2024-03-22T06:58:05;10.30;99.90
5842;DHT22;2947;52.276;9.946;2024-03-22T07:00:31;10.40;99.90
5842;DHT22;2947;52.276;9.946;2024-03-22T07:03:00;10.40;54.80
5842;DHT22;2947;52.276;9.946;2024-03-22T07:05:28;10.40;59.00
5842;DHT22;2947;52.276;9.946;2024-03-22T07:07:54;11.30;33.40
5842;DHT22;2947;52.276;9.946;2024-03-22T07:10:23;10.50;1.00
5842;DHT22;2947;52.276;9.946;2024-03-22T07:12:54;10.60;1.00
5842;DHT22;2947;52.276;9.946;2024-03-22T07:15:24;10.50;1.00
5842;DHT22;2947;52.276;9.946;2024-03-22T07:17:51;10.50;1.00
5842;DHT22;2947;52.276;9.946;2024-03-22T07:20:17;10.50;1.00
5842;DHT22;2947;52.276;9.946;2024-03-22T07:22:44;10.60;1.00
5842;DHT22;2947;52.276;9.946;2024-03-22T07:25:09;10.60;1.00
5842;DHT22;2947;52.276;9.946;2024-03-22T07:27:36;10.60;1.00
5842;DHT22;2947;52.276;9.946;2024-03-22T07:30:03;10.70;1.00
5842;DHT22;2947;52.276;9.946;2024-03-22T07:32:30;10.70;1.00
5842;DHT22;2947;52.276;9.946;2024-03-22T07:34:56;10.80;1.00
5842;DHT22;2947;52.276;9.946;2024-03-22T07:37:22;10.80;1.00
5842;DHT22;2947;52.276;9.946;2024-03-22T07:39:48;10.90;1.00
5842;DHT22;2947;52.276;9.946;2024-03-22T07:42:13;10.90;1.00
5842;DHT22;2947;52.276;9.946;2024-03-22T07:44:39;11.00;1.00
5842;DHT22;2947;52.276;9.946;2024-03-22T07:47:05;11.10;1.00
5842;DHT22;2947;52.276;9.946;2024-03-22T07:49:31;11.10;1.00
5842;DHT22;2947;52.276;9.946;2024-03-22T07:51:59;11.10;1.00
5842;DHT22;2947;52.276;9.946;2024-03-22T07:54:25;11.20;1.00
5842;DHT22;2947;52.276;9.946;2024-03-22T07:56:51;11.20;1.00
5842;DHT22;2947;52.276;9.946;2024-03-22T07:59:21;11.30;1.00
5842;DHT22;2947;52.276;9.946;2024-03-22T08:01:47;11.30;1.00
5842;DHT22;2947;52.276;9.946;2024-03-22T08:04:13;11.30;1.00
5842;DHT22;2947;52.276;9.946;2024-03-22T08:06:40;11.40;1.00
5842;DHT22;2947;52.276;9.946;2024-03-22T08:09:05;11.40;99.90
5842;DHT22;2947;52.276;9.946;2024-03-22T08:11:33;11.50;99.90
5842;DHT22;2947;52.276;9.946;2024-03-22T08:13:59;11.90;99.90
5842;DHT22;2947;52.276;9.946;2024-03-22T08:16:29;11.60;99.90
5842;DHT22;2947;52.276;9.946;2024-03-22T08:18:55;11.80;99.90
5842;DHT22;2947;52.276;9.946;2024-03-22T08:21:24;11.70;99.90
5842;DHT22;2947;52.276;9.946;2024-03-22T08:23:51;11.70;99.90
5842;DHT22;2947;52.276;9.946;2024-03-22T08:26:17;11.80;99.90
5842;DHT22;2947;52.276;9.946;2024-03-22T08:28:44;11.90;99.90
5842;DHT22;2947;52.276;9.946;2024-03-22T08:31:13;12.10;1.00
5842;DHT22;2947;52.276;9.946;2024-03-22T08:33:38;12.00;1.00
5842;DHT22;2947;52.276;9.946;2024-03-22T08:36:05;12.00;1.00
5842;DHT22;2947;52.276;9.946;2024-03-22T08:38:31;12.00;99.90
5842;DHT22;2947;52.276;9.946;2024-03-22T08:40:59;12.00;99.90
5842;DHT22;2947;52.276;9.946;2024-03-22T08:43:25;12.00;99.90
5842;DHT22;2947;52.276;9.946;2024-03-22T08:45:53;12.10;1.00
5842;DHT22;2947;52.276;9.946;2024-03-22T08:48:19;12.10;1.00
5842;DHT22;2947;52.276;9.946;2024-03-22T08:50:45;12.00;1.00
5842;DHT22;2947;52.276;9.946;2024-03-22T08:53:10;12.00;1.00
5842;DHT22;2947;52.276;9.946;2024-03-22T08:55:36;12.10;99.90
5842;DHT22;2947;52.276;9.946;2024-03-22T08:58:03;12.10;1.00
5842;DHT22;2947;52.276;9.946;2024-03-22T09:00:30;12.10;99.90
5842;DHT22;2947;52.276;9.946;2024-03-22T09:02:55;11.00;1.00
5842;DHT22;2947;52.276;9.946;2024-03-22T09:05:22;12.10;99.90
5842;DHT22;2947;52.276;9.946;2024-03-22T09:07:48;12.10;99.90
5842;DHT22;2947;52.276;9.946;2024-03-22T09:10:14;12.10;11.40
5842;DHT22;2947;52.276;9.946;2024-03-22T09:12:39;12.10;99.90
5842;DHT22;2947;52.276;9.946;2024-03-22T09:15:06;12.60;99.90
5842;DHT22;2947;52.276;9.946;2024-03-22T09:17:32;12.10;1.00
5842;DHT22;2947;52.276;9.946;2024-03-22T09:19:58;12.10;1.00
5842;DHT22;2947;52.276;9.946;2024-03-22T09:22:24;12.10;1.00
5842;DHT22;2947;52.276;9.946;2024-03-22T09:24:51;12.20;99.90
5842;DHT22;2947;52.276;9.946;2024-03-22T09:27:17;12.20;98.70
5842;DHT22;2947;52.276;9.946;2024-03-22T09:29:43;12.20;1.00
5842;DHT22;2947;52.276;9.946;2024-03-22T09:32:09;12.30;99.90
5842;DHT22;2947;52.276;9.946;2024-03-22T09:34:35;12.40;99.90
5842;DHT22;2947;52.276;9.946;2024-03-22T09:37:00;12.40;99.90
5842;DHT22;2947;52.276;9.946;2024-03-22T09:39:27;12.40;99.90
5842;DHT22;2947;52.276;9.946;2024-03-22T09:41:57;12.50;1.00
5842;DHT22;2947;52.276;9.946;2024-03-22T09:44:23;12.60;1.00
5842;DHT22;2947;52.276;9.946;2024-03-22T09:46:51;12.50;99.90
5842;DHT22;2947;52.276;9.946;2024-03-22T09:49:18;12.50;99.90
5842;DHT22;2947;52.276;9.946;2024-03-22T09:51:44;12.60;61.40
5842;DHT22;2947;52.276;9.946;2024-03-22T09:54:10;12.60;21.40
5842;DHT22;2947;52.276;9.946;2024-03-22T09:56:38;12.80;99.90
5842;DHT22;2947;52.276;9.946;2024-03-22T09:59:05;12.70;99.90
5842;DHT22;2947;52.276;9.946;2024-03-22T10:01:36;12.70;99.90
5842;DHT22;2947;52.276;9.946;2024-03-22T10:04:04;12.70;99.90
5842;DHT22;2947;52.276;9.946;2024-03-22T10:06:30;12.70;99.90
5842;DHT22;2947;52.276;9.946;2024-03-22T10:09:00;12.70;99.90
5842;DHT22;2947;52.276;9.946;2024-03-22T10:11:29;12.70;79.00
5842;DHT22;2947;52.276;9.946;2024-03-22T10:13:55;12.80;1.00
5842;DHT22;2947;52.276;9.946;2024-03-22T10:16:21;13.10;99.90
5842;DHT22;2947;52.276;9.946;2024-03-22T10:18:48;12.80;11.90
5842;DHT22;2947;52.276;9.946;2024-03-22T10:21:17;12.90;99.90
5842;DHT22;2947;52.276;9.946;2024-03-22T10:23:44;12.90;59.00
5842;DHT22;2947;52.276;9.946;2024-03-22T10:26:12;13.00;99.90
5842;DHT22;2947;52.276;9.946;2024-03-22T10:28:47;13.00;1.00
5842;DHT22;2947;52.276;9.946;2024-03-22T10:31:13;13.00;1.00
5842;DHT22;2947;52.276;9.946;2024-03-22T10:33:40;13.30;1.00
5842;DHT22;2947;52.276;9.946;2024-03-22T10:36:07;13.20;1.00
5842;DHT22;2947;52.276;9.946;2024-03-22T10:38:39;13.10;1.00
5842;DHT22;2947;52.276;9.946;2024-03-22T10:41:06;13.90;1.00
5842;DHT22;2947;52.276;9.946;2024-03-22T10:43:32;13.20;99.90
5842;DHT22;2947;52.276;9.946;2024-03-22T10:46:01;13.20;99.90
5842;DHT22;2947;52.276;9.946;2024-03-22T10:48:30;13.20;99.90
5842;DHT22;2947;52.276;9.946;2024-03-22T10:51:01;13.30;99.90
5842;DHT22;2947;52.276;9.946;2024-03-22T10:53:28;13.30;99.90
5842;DHT22;2947;52.276;9.946;2024-03-22T10:55:59;13.30;99.90
5842;DHT22;2947;52.276;9.946;2024-03-22T10:58:26;13.30;1.00
5842;DHT22;2947;52.276;9.946;2024-03-22T11:00:54;13.20;99.90
5842;DHT22;2947;52.276;9.946;2024-03-22T11:03:23;13.10;99.90
5842;DHT22;2947;52.276;9.946;2024-03-22T11:05:54;13.10;1.00
5842;DHT22;2947;52.276;9.946;2024-03-22T11:08:29;13.00;99.90
5842;DHT22;2947;52.276;9.946;2024-03-22T11:11:11;13.00;99.90
5842;DHT22;2947;52.276;9.946;2024-03-22T11:13:39;13.00;1.00
5842;DHT22;2947;52.276;9.946;2024-03-22T11:16:05;12.90;1.00
5842;DHT22;2947;52.276;9.946;2024-03-22T11:18:33;12.90;1.00
5842;DHT22;2947;52.276;9.946;2024-03-22T11:20:59;12.90;1.00
5842;DHT22;2947;52.276;9.946;2024-03-22T11:23:25;12.90;99.90
5842;DHT22;2947;52.276;9.946;2024-03-22T11:25:51;13.00;99.90
5842;DHT22;2947;52.276;9.946;2024-03-22T11:28:19;13.00;99.90
5842;DHT22;2947;52.276;9.946;2024-03-22T11:30:46;13.10;1.00
5842;DHT22;2947;52.276;9.946;2024-03-22T11:33:12;13.10;99.90
5842;DHT22;2947;52.276;9.946;2024-03-22T11:35:38;13.10;99.90
5842;DHT22;2947;52.276;9.946;2024-03-22T11:38:05;13.10;1.00
5842;DHT22;2947;52.276;9.946;2024-03-22T11:40:31;13.20;22.90
5842;DHT22;2947;52.276;9.946;2024-03-22T11:42:59;13.10;99.90
5842;DHT22;2947;52.276;9.946;2024-03-22T11:45:26;13.20;99.90
5842;DHT22;2947;52.276;9.946;2024-03-22T11:47:56;13.20;99.90
5842;DHT22;2947;52.276;9.946;2024-03-22T11:50:22;13.30;99.90
5842;DHT22;2947;52.276;9.946;2024-03-22T11:52:48;13.30;1.00
5842;DHT22;2947;52.276;9.946;2024-03-22T11:55:14;13.30;1.00
5842;DHT22;2947;52.276;9.946;2024-03-22T11:57:41;13.30;99.90
5842;DHT22;2947;52.276;9.946;2024-03-22T12:00:07;13.40;99.90
5842;DHT22;2947;52.276;9.946;2024-03-22T12:02:38;13.40;1.00
5842;DHT22;2947;52.276;9.946;2024-03-22T12:05:07;13.40;1.00
5842;DHT22;2947;52.276;9.946;2024-03-22T12:07:34;13.40;1.00
5842;DHT22;2947;52.276;9.946;2024-03-22T12:10:00;13.40;1.00
5842;DHT22;2947;52.276;9.946;2024-03-22T12:12:26;13.50;99.90
5842;DHT22;2947;52.276;9.946;2024-03-22T12:14:53;13.50;1.00
5842;DHT22;2947;52.276;9.946;2024-03-22T12:17:20;13.40;1.00
5842;DHT22;2947;52.276;9.946;2024-03-22T12:19:45;13.50;99.90
5842;DHT22;2947;52.276;9.946;2024-03-22T12:22:11;13.60;1.00
5842;DHT22;2947;52.276;9.946;2024-03-22T12:24:37;13.50;1.00
5842;DHT22;2947;52.276;9.946;2024-03-22T12:27:03;13.50;1.00
5842;DHT22;2947;52.276;9.946;2024-03-22T12:29:32;13.50;1.00
5842;DHT22;2947;52.276;9.946;2024-03-22T12:31:59;13.50;99.90
5842;DHT22;2947;52.276;9.946;2024-03-22T12:34:27;13.50;99.90
5842;DHT22;2947;52.276;9.946;2024-03-22T12:36:55;13.50;99.90
5842;DHT22;2947;52.276;9.946;2024-03-22T12:39:21;13.50;24.70
5842;DHT22;2947;52.276;9.946;2024-03-22T12:41:47;13.50;78.00
5842;DHT22;2947;52.276;9.946;2024-03-22T12:44:13;13.50;25.20
5842;DHT22;2947;52.276;9.946;2024-03-22T12:46:39;13.50;1.00
5842;DHT22;2947;52.276;9.946;2024-03-22T12:49:07;13.50;1.00
5842;DHT22;2947;52.276;9.946;2024-03-22T12:51:35;13.50;1.00
5842;DHT22;2947;52.276;9.946;2024-03-22T12:54:01;13.40;1.00
5842;DHT22;2947;52.276;9.946;2024-03-22T12:56:27;13.50;1.00
5842;DHT22;2947;52.276;9.946;2024-03-22T12:58:53;13.40;99.90
5842;DHT22;2947;52.276;9.946;2024-03-22T13:01:19;13.40;99.90
5842;DHT22;2947;52.276;9.946;2024-03-22T13:03:46;13.40;99.90
5842;DHT22;2947;52.276;9.946;2024-03-22T13:06:12;13.30;99.90
5842;DHT22;2947;52.276;9.946;2024-03-22T13:08:38;13.50;1.00
5842;DHT22;2947;52.276;9.946;2024-03-22T13:11:04;13.30;1.00
5842;DHT22;2947;52.276;9.946;2024-03-22T13:13:30;13.30;93.10
5842;DHT22;2947;52.276;9.946;2024-03-22T13:15:59;13.20;99.90
5842;DHT22;2947;52.276;9.946;2024-03-22T13:18:28;13.20;1.00
5842;DHT22;2947;52.276;9.946;2024-03-22T13:20:55;13.20;99.90
5842;DHT22;2947;52.276;9.946;2024-03-22T13:23:21;13.10;1.00
5842;DHT22;2947;52.276;9.946;2024-03-22T13:25:47;13.10;1.00
5842;DHT22;2947;52.276;9.946;2024-03-22T13:28:12;13.10;99.90
5842;DHT22;2947;52.276;9.946;2024-03-22T13:30:38;13.00;99.90
5842;DHT22;2947;52.276;9.946;2024-03-22T13:33:04;13.00;1.00
5842;DHT22;2947;52.276;9.946;2024-03-22T13:35:33;13.10;28.90
5842;DHT22;2947;52.276;9.946;2024-03-22T13:37:59;13.10;99.90
5842;DHT22;2947;52.276;9.946;2024-03-22T13:40:26;13.00;99.90
5842;DHT22;2947;52.276;9.946;2024-03-22T13:42:55;13.70;99.90
5842;DHT22;2947;52.276;9.946;2024-03-22T13:45:21;13.00;1.00
5842;DHT22;2947;52.276;9.946;2024-03-22T13:47:47;12.90;99.90
5842;DHT22;2947;52.276;9.946;2024-03-22T13:50:13;13.00;1.00
5842;DHT22;2947;52.276;9.946;2024-03-22T13:52:39;12.90;1.00
5842;DHT22;2947;52.276;9.946;2024-03-22T13:55:05;12.90;17.60
5842;DHT22;2947;52.276;9.946;2024-03-22T13:57:31;13.10;99.90
5842;DHT22;2947;52.276;9.946;2024-03-22T13:59:58;13.10;99.90
5842;DHT22;2947;52.276;9.946;2024-03-22T14:02:25;13.90;99.90
5842;DHT22;2947;52.276;9.946;2024-03-22T14:04:53;13.00;99.90
5842;DHT22;2947;52.276;9.946;2024-03-22T14:07:19;13.10;99.90
5842;DHT22;2947;52.276;9.946;2024-03-22T14:09:45;13.00;99.90
5842;DHT22;2947;52.276;9.946;2024-03-22T14:12:10;13.10;99.90
5842;DHT22;2947;52.276;9.946;2024-03-22T14:14:36;12.90;99.90
5842;DHT22;2947;52.276;9.946;2024-03-22T14:17:02;12.80;99.90
5842;DHT22;2947;52.276;9.946;2024-03-22T14:19:29;12.80;1.00
5842;DHT22;2947;52.276;9.946;2024-03-22T14:21:54;12.80;1.00
5842;DHT22;2947;52.276;9.946;2024-03-22T14:24:22;12.80;1.00
5842;DHT22;2947;52.276;9.946;2024-03-22T14:26:47;12.70;1.00
5842;DHT22;2947;52.276;9.946;2024-03-22T14:29:13;12.70;1.00
5842;DHT22;2947;52.276;9.946;2024-03-22T14:31:39;12.70;1.00
5842;DHT22;2947;52.276;9.946;2024-03-22T14:34:08;12.70;1.00
5842;DHT22;2947;52.276;9.946;2024-03-22T14:36:34;12.60;1.00
5842;DHT22;2947;52.276;9.946;2024-03-22T14:39:01;12.70;1.00
5842;DHT22;2947;52.276;9.946;2024-03-22T14:41:32;12.60;1.00
5842;DHT22;2947;52.276;9.946;2024-03-22T14:43:58;12.60;1.00
5842;DHT22;2947;52.276;9.946;2024-03-22T14:46:25;12.60;1.00
5842;DHT22;2947;52.276;9.946;2024-03-22T14:48:54;12.50;1.00
5842;DHT22;2947;52.276;9.946;2024-03-22T14:51:20;12.40;1.00
5842;DHT22;2947;52.276;9.946;2024-03-22T14:53:47;12.40;1.00
5842;DHT22;2947;52.276;9.946;2024-03-22T14:56:13;12.40;1.00
5842;DHT22;2947;52.276;9.946;2024-03-22T14:58:40;12.30;1.00
5842;DHT22;2947;52.276;9.946;2024-03-22T15:01:06;12.30;1.00
5842;DHT22;2947;52.276;9.946;2024-03-22T15:03:32;12.30;14.10
5842;DHT22;2947;52.276;9.946;2024-03-22T15:05:59;12.20;33.50
5842;DHT22;2947;52.276;9.946;2024-03-22T15:08:26;12.20;20.40
5842;DHT22;2947;52.276;9.946;2024-03-22T15:10:54;12.20;1.00
5842;DHT22;2947;52.276;9.946;2024-03-22T15:13:22;12.10;1.00
5842;DHT22;2947;52.276;9.946;2024-03-22T15:15:55;12.10;1.00
5842;DHT22;2947;52.276;9.946;2024-03-22T15:18:22;12.20;18.50
5842;DHT22;2947;52.276;9.946;2024-03-22T15:20:49;12.10;78.40
5842;DHT22;2947;52.276;9.946;2024-03-22T15:23:17;12.10;99.90
5842;DHT22;2947;52.276;9.946;2024-03-22T15:25:44;12.10;39.10
5842;DHT22;2947;52.276;9.946;2024-03-22T15:28:10;12.00;32.80
5842;DHT22;2947;52.276;9.946;2024-03-22T15:30:37;12.00;43.50
5842;DHT22;2947;52.276;9.946;2024-03-22T15:33:07;11.90;41.60
5842;DHT22;2947;52.276;9.946;2024-03-22T15:35:34;11.90;76.80
5842;DHT22;2947;52.276;9.946;2024-03-22T15:38:01;12.00;99.90
5842;DHT22;2947;52.276;9.946;2024-03-22T15:40:32;11.90;99.90
5842;DHT22;2947;52.276;9.946;2024-03-22T15:42:58;11.90;99.90
5842;DHT22;2947;52.276;9.946;2024-03-22T15:45:25;11.90;99.90
5842;DHT22;2947;52.276;9.946;2024-03-22T15:47:52;11.90;99.90
5842;DHT22;2947;52.276;9.946;2024-03-22T15:50:21;11.80;99.90
5842;DHT22;2947;52.276;9.946;2024-03-22T15:52:47;11.80;99.90
5842;DHT22;2947;52.276;9.946;2024-03-22T15:55:13;12.70;99.90
5842;DHT22;2947;52.276;9.946;2024-03-22T15:57:39;11.80;99.90
5842;DHT22;2947;52.276;9.946;2024-03-22T16:00:05;12.80;99.90
5842;DHT22;2947;52.276;9.946;2024-03-22T16:02:32;11.80;99.90
5842;DHT22;2947;52.276;9.946;2024-03-22T16:04:58;11.70;99.90
5842;DHT22;2947;52.276;9.946;2024-03-22T16:07:24;11.70;99.90